Terminal Aerodrome Forecast
Issued by NWS

Home | Current Version | Previous Version | Text Only | Print | Product List | Glossary On
Versions: 1 2 3 4 5 6 7 8 9 10 11 12 13 14 15 16 17
000
FTUS44 KLZK 292340
TAFPBF
TAF
KPBF 292340Z 3000/3024 16008G16KT P6SM VCTS SCT025 BKN050CB
     FM300200 16012KT 5SM -TSRA BR BKN025CB OVC060
      TEMPO 3002/3006 1SM TSRA BR BKN008 OVC015CB
     FM301200 21008G16KT P6SM BKN050=

USA.gov is the U.S. government's official web portal to all federal, state and local government web resources and services.